КЛИМАТИЧНИ ДАННИ

ВЧЕРА
Time Temp. Dewp. Hum. Посока н Скорост на Пориви на Bar. 1h Prec. 24h Prec.
00:14 6.6 4.8 88 0 0 997.8 0.1010 0.0000
00:34 6.7 5 89 0 0 997.4 0.0000 0.0000
00:54 6.8 5.1 89 0 0 997.2 0.0000 0.0000
01:04 6.7 5 89 0 0 997.1 0.0000 0.0000
01:15 6.7 4.9 88 0 0 996.9 0.0000 0.0000
01:35 6.8 5 88 0 0 996.8 0.0000 0.0000
01:44 6.9 4.9 87 0 0 996.6 0.0000 0.0000
01:57 7 5 87 0 0 996.4 0.3030 0.3000
02:07 6.8 5 88 0 0 996.1 0.5050 0.5000
02:18 6.7 5 89 0 0 996 0.5050 0.5000
02:27 6.7 5.2 90 0 0 995.7 0.5050 0.5000
02:37 6.6 5.1 90 0 0 995.5 0.6060 0.6000
02:48 6.5 5 90 0 0 995.5 0.5050 0.6000
02:58 6.4 4.9 90 0 0 995.4 0.1010 0.6000
03:12 6.5 5 90 0 0 995 0.1010 0.6000
03:23 6.6 5.1 90 0 0 994.9 0.2020 0.7000
03:38 6.6 5.1 90 0 0 994.4 0.4040 1.0000
03:48 6.6 5.1 90 0 0 993.9 0.5050 1.1000
03:59 6.6 4.9 89 0 0 993.6 0.5050 1.1000
04:08 6.6 5.1 90 0 0 993.3 1.2120 1.8000
04:18 6.5 5 90 0 0 992.8 1.7170 2.4000
04:28 6.5 5.1 91 0 0 992.6 1.7170 2.6000
04:39 6.4 5 91 0 0 992.4 1.8180 2.8000
04:48 6.4 5.2 92 0 0 992.3 1.7170 2.8000
04:58 6.5 5.3 92 0 0 992.3 0.7070 2.9000
05:24 6.5 5.5 93 0 0 992.3 0.5050 3.0000
05:33 6.6 5.6 93 0 0 992.2 0.3030 3.1000
05:49 6.7 5.8 94 0 0 992.4 0.3030 3.2000
05:59 6.8 5.9 94 0 0 992.7 0.3030 3.2000
06:09 6.9 6 94 0 0 992.9 0.4040 3.3000
06:20 7 6.1 94 0 0 993.1 0.4040 3.4000
06:29 7.1 6.2 94 0 0 993.5 0.6060 3.7000
06:39 7.1 6.2 94 0 0 993.7 0.7070 3.9000
06:49 7.1 6.2 94 0 0 994 0.8080 4.0000
07:00 7.1 6.2 94 0 0 994.1 0.9090 4.1000
07:10 7.1 6.4 95 0 0 994.4 0.8080 4.1000
07:19 7.1 6.4 95 0 0 994.7 0.6060 4.1000
07:30 7.1 6.4 95 0 0 994.9 0.3030 4.1000
07:40 7.1 6.2 94 0 0 995.1 0.2020 4.2000
07:50 7.1 6.2 94 0 0 995.2 0.1010 4.2000
08:00 7.1 6.2 94 0 0 995.5 0.1010 4.2000
08:10 7.1 6.2 94 0 0 995.7 0.3030 4.4000
08:20 7.1 6.2 94 0 0 995.9 0.3030 4.4000
08:30 7 6.1 94 0 0 996.1 0.4040 4.5000
08:41 7.1 6 93 0 0 996.4 0.3030 4.5000
08:51 7.1 6 93 0 0 996.7 0.3030 4.6000
09:16 7.1 6 93 0 0 997.5 0.4040 4.8000
09:26 7 5.9 93 0 0 997.8 0.3030 4.8000
09:46 7.1 6 93 0 0 998.3 0.5050 5.2000
09:57 7.2 6.3 94 0 0 998.6 0.5050 5.2000
10:06 7.2 6.3 94 0 0 998.9 0.3030 5.2000
10:16 7.3 6.4 94 0 0 999.2 0.3030 5.2000
10:27 7.9 7.1 95 0 0 999.6 0.2020 5.2000
10:37 8.1 7.2 94 0 0 999.8 0.0000 5.2000
10:47 8.2 7.1 93 0 0 1000.1 0.0000 5.2000
10:56 8.6 7.5 93 0 0 1000.3 0.0000 5.2000
11:22 8.7 7.3 91 0 0 1001.1 0.1010 5.3000
11:37 8.7 7 89 0 0 1001.4 0.1010 5.3000
11:52 8.8 7.1 89 0 0 1001.8 0.1010 5.3000
11:57 8.8 6.9 88 0 0 1001.9 0.3030 5.5000
12:06 8.5 6.5 87 0 0 1002.2 0.2020 5.5000
12:17 8.4 6.5 88 0 0 1002.3 0.2020 5.5000
12:27 8.3 6.6 89 0 0 1002.5 0.3030 5.6000
12:37 8.2 6.5 89 0 0 1002.6 0.3030 5.6000
12:47 8.3 6.4 88 0 0 1002.8 0.3030 5.6000
12:58 8.3 6.3 87 0 0 1002.9 0.1010 5.6000
13:07 8.3 6.1 86 0 0 1003.3 0.1010 5.6000
13:17 8.2 6 86 0 0 1003.3 0.0000 5.6000
13:28 8.2 5.8 85 0 0 1003.6 0.0000 5.6000
13:43 8.1 5.9 86 0 0 1004.2 0.0000 5.6000
13:52 8.1 6.1 87 0 0 1004.4 0.0000 5.6000
14:03 7.9 5.9 87 0 0 1004.7 0.0000 5.6000
14:13 7.9 5.9 87 0 0 1004.9 0.0000 5.6000
14:23 8 5.8 86 0 0 1005.2 0.0000 5.6000
14:44 8 5.8 86 0 0 1006 0.0000 5.6000
14:53 8 5.8 86 0 0 1006.6 0.0000 5.6000
15:14 7.6 5.2 85 0 0 1007.6 0.2020 5.8000
15:24 7.6 4.9 83 0 0 1008.1 0.2020 5.8000
15:34 7.7 5 83 0 0 1008.6 0.2020 5.8000
15:44 7.7 4.8 82 0 0 1008.9 0.2020 5.8000
15:54 7.7 4.7 81 0 0 1009.4 0.2020 5.8000
16:04 7.7 4.5 80 0 0 1009.9 0.0000 5.8000
16:14 7.7 4.8 82 0 0 1010.5 0.0000 5.8000
16:25 7.6 4.9 83 0 0 1010.9 0.0000 5.8000
16:34 7.6 4.9 83 0 0 1011.2 0.0000 5.8000
16:44 7.7 4.8 82 0 0 1011.8 0.0000 5.8000
16:54 7.7 4.7 81 0 0 1012.2 0.0000 5.8000
17:05 7.7 4.5 80 0 0 1012.6 0.0000 5.8000
17:15 7.6 4.2 79 0 0 1013.1 0.0000 5.8000
17:25 7.5 4.1 79 0 0 1013.6 0.0000 5.8000
17:35 7.4 3.8 78 0 0 1014 0.0000 5.8000
17:45 7.4 4 79 0 0 1014.4 0.0000 5.8000
17:55 7.3 3.7 78 0 0 1014.9 0.0000 5.8000
18:05 7.1 3.5 78 0 0 1015.2 0.0000 5.8000
18:16 7 3.6 79 0 0 1015.5 0.0000 5.8000
18:25 6.8 3.4 79 0 0 1015.8 0.0000 5.8000
18:35 6.8 3.6 80 0 0 1016.1 0.0000 5.8000
18:56 6.7 3.5 80 0 0 1016.8 0.0000 5.8000
19:06 6.8 3.6 80 0 0 1017.1 0.0000 5.8000
19:15 6.8 3.6 80 0 0 1017.7 0.0000 5.8000
19:26 6.7 3.5 80 0 0 1017.9 0.0000 5.8000
19:41 6.6 3.4 80 0 0 1018.3 0.0000 5.8000
19:56 6.5 3.7 82 0 0 1019 0.0000 5.8000
20:06 6.5 3.5 81 0 0 1019.1 0.0000 5.8000
20:16 6.4 3.4 81 0 0 1019.4 0.0000 5.8000
20:26 6.2 3.4 82 0 0 1019.8 0.0000 5.8000
20:37 6.3 3.6 83 0 0 1020.3 0.0000 5.8000
20:47 6.4 3.9 84 0 0 1020.7 0.0000 5.8000
20:57 6.2 3.9 85 0 0 1020.8 0.0000 5.8000
21:08 6.1 3.9 86 0 0 1021.1 0.3030 6.1000
21:19 6.1 4.1 87 0 0 1021.1 0.5050 6.3000
21:29 6 4.2 88 0 0 1021.3 0.7070 6.5000
21:39 5.9 4.1 88 0 0 1021.4 0.8080 6.6000
21:49 5.8 4.1 89 0 0 1021.7 0.8080 6.6000
21:59 5.7 4 89 0 0 1022.2 0.8080 6.6000
22:14 5.7 4.2 90 0 0 1022.2 0.5050 6.8000
22:24 5.6 3.9 89 0 0 1022.4 0.2020 6.8000
22:45 5.4 3.7 89 0 0 1022.5 0.2020 6.8000
22:54 5.2 3.5 89 0 0 1022.8 0.1010 6.8000
23:15 5.1 3.6 90 0 0 1023.3 0.0000 6.8000
23:25 5.1 3.8 91 0 0 1023.4 0.0000 6.8000
23:35 5.1 3.8 91 0 0 1023.5 0.0000 6.8000
23:45 5.1 3.8 91 0 0 1023.7 0.0000 6.8000
23:55 5.2 3.9 91 0 0 1024.1 0.2020

ДНЕВНИ СТАТИСТИКИ

2019-12-09
ТЕМПЕРАТУРА
СРЕДНО
7.0
ВИСОКО
8.8
11:52
МИНИМУМ
5.1
23:15
АТМОСФЕРНО НАЛЯГАНЕ
СРЕДНО
1005.1
ВИСОКО
1024.1
23:55
МИНИМУМ
992.2
05:33
ТОЧКА НА ОРОСЯВАНЕ
СРЕДНО
5.2
ВИСОКО
7.5
10:56
МИНИМУМ
3.4
18:25
ОТНОСИТЕЛНА ВЛАЖНОСТ
СРЕДНО
88
ВИСОКО
95
07:10
МИНИМУМ
78
17:35
СКОРОСТ НА ВЯТЪРА
СРЕДНО
0.0
ВИСОКО
0.0
07:29
ПОРИВИ НА ВЯТЪРА
СРЕДНО
0.0
ВИСОКО
0.0
07:29
ПОСОКА НА ВЯТЪРА
PREVAILING
%
ВАЛЕЖ
RAIN HOUR
1.8
RAIN DAY
6.8
ТЕМПЕРАТУРА (°C)
МИНИМУМ
5.1
ВИСОКО
8.8
СРЕДНО
7.0
АТМОСФЕРНО НАЛЯГАНЕ (hpa)
МИНИМУМ
992.2
ВИСОКО
1024.1
СРЕДНО
1005.1
DEVICE